Time;durP1;ratioP1;P1;durP2;ratioP2;P2;SDS_P1;SDS_P2;PMS_P1;PMS_P2;Temp;Humidity;BMP_temperature;BMP_pressure;BME280_temperature;BME280_humidity;BME280_pressure;Samples;Min_cycle;Max_cycle;Signal;HPM_P1;HPM_P2
2022/06/04 00:00:05;;;;;;;6.97;2.50;;;;;;;;;;4991435;28;20216;-68
2022/06/04 00:02:30;;;;;;;4.97;2.40;;;;;;;;;;4992640;28;20330;-68
2022/06/04 00:04:55;;;;;;;5.13;2.40;;;;;;;;;;4993238;28;20734;-68
2022/06/04 00:07:21;;;;;;;7.82;2.30;;;;;;;;;;4992684;28;20283;-68
2022/06/04 00:15:29;;;;;;;4.45;2.50;;;;;;;;;;4974580;28;20237;-68
2022/06/04 00:15:33;;;;;;;6.88;2.50;;;;;;;;;;5002731;28;20235;-68
2022/06/04 00:17:58;;;;;;;6.78;2.53;;;;;;;;;;5012315;28;20215;-69
2022/06/04 00:20:24;;;;;;;6.18;2.70;;;;;;;;;;5011586;28;20224;-68
2022/06/04 00:22:49;;;;;;;7.88;2.78;;;;;;;;;;5011525;28;20227;-69
2022/06/04 00:25:14;;;;;;;5.53;2.72;;;;;;;;;;5011951;28;20644;-68
2022/06/04 00:27:40;;;;;;;4.65;2.63;;;;;;;;;;5012652;28;20210;-69
2022/06/04 00:30:06;;;;;;;5.13;2.80;;;;;;;;;;5011513;28;20219;-68
2022/06/04 00:32:33;;;;;;;6.20;2.97;;;;;;;;;;4999962;28;20271;-68
2022/06/04 00:35:05;;;;;;;5.30;2.65;;;;;;;;;;4992657;28;20524;-68
2022/06/04 00:37:36;;;;;;;7.32;3.10;;;;;;;;;;4998988;28;20221;-68
2022/06/04 00:40:02;;;;;;;5.35;3.08;;;;;;;;;;4992318;28;20232;-67
2022/06/04 00:42:27;;;;;;;7.18;3.58;;;;;;;;;;4992675;28;20228;-68
2022/06/04 00:45:11;;;;;;;5.85;2.90;;;;;;;;;;5007094;28;20228;-69
2022/06/04 00:47:36;;;;;;;8.15;3.55;;;;;;;;;;5011389;28;20216;-68
2022/06/04 00:50:05;;;;;;;9.60;3.10;;;;;;;;;;5010689;28;20497;-67
2022/06/04 00:52:30;;;;;;;6.43;3.42;;;;;;;;;;5010886;28;20248;-67
2022/06/04 00:54:57;;;;;;;8.15;3.33;;;;;;;;;;5011951;28;20242;-67
2022/06/04 00:57:26;;;;;;;6.65;3.22;;;;;;;;;;5010788;28;20271;-67
2022/06/04 00:59:54;;;;;;;7.07;3.45;;;;;;;;;;5010577;28;20204;-67
2022/06/04 01:02:27;;;;;;;6.25;3.60;;;;;;;;;;5011314;28;20229;-67
2022/06/04 01:04:53;;;;;;;8.27;3.53;;;;;;;;;;5009655;28;20224;-68
2022/06/04 01:07:25;;;;;;;7.90;4.32;;;;;;;;;;5011487;28;20217;-68
2022/06/04 01:09:57;;;;;;;9.70;3.97;;;;;;;;;;5011772;28;20213;-68
2022/06/04 01:12:22;;;;;;;7.65;3.72;;;;;;;;;;5009293;28;20208;-67
2022/06/04 01:14:51;;;;;;;6.13;3.70;;;;;;;;;;5011566;28;20220;-68
2022/06/04 01:17:20;;;;;;;7.70;3.83;;;;;;;;;;4992622;28;20206;-68
2022/06/04 01:19:52;;;;;;;7.82;4.05;;;;;;;;;;4990106;28;20220;-68
2022/06/04 01:22:18;;;;;;;7.53;3.88;;;;;;;;;;4990211;28;20232;-68
2022/06/04 01:24:57;;;;;;;6.80;4.20;;;;;;;;;;4991992;28;20217;-68
2022/06/04 01:27:30;;;;;;;8.35;4.18;;;;;;;;;;4990137;28;20300;-68
2022/06/04 01:29:56;;;;;;;10.00;4.82;;;;;;;;;;4990481;28;20209;-68
2022/06/04 01:32:23;;;;;;;6.85;4.05;;;;;;;;;;5004603;28;20223;-68
2022/06/04 01:34:48;;;;;;;9.63;4.50;;;;;;;;;;5015779;28;20205;-68
2022/06/04 01:43:03;;;;;;;12.38;4.85;;;;;;;;;;5013766;28;20307;-67
2022/06/04 01:45:29;;;;;;;8.65;4.82;;;;;;;;;;4994563;28;20308;-68
2022/06/04 01:47:55;;;;;;;12.13;5.00;;;;;;;;;;4994975;28;20264;-68
2022/06/04 01:50:22;;;;;;;8.88;5.03;;;;;;;;;;4994015;28;20217;-68
2022/06/04 01:52:47;;;;;;;10.25;5.22;;;;;;;;;;4993928;28;20216;-68
2022/06/04 01:55:15;;;;;;;8.88;5.03;;;;;;;;;;4994640;28;20221;-68
2022/06/04 01:57:43;;;;;;;8.27;4.72;;;;;;;;;;4995742;28;20213;-68
2022/06/04 02:00:10;;;;;;;8.73;5.05;;;;;;;;;;4993233;28;20664;-67
2022/06/04 02:02:37;;;;;;;10.32;5.88;;;;;;;;;;4994052;28;20267;-68
2022/06/04 02:05:04;;;;;;;8.30;4.97;;;;;;;;;;4994914;28;20217;-67
2022/06/04 02:07:29;;;;;;;8.20;5.38;;;;;;;;;;4993087;28;20221;-68
2022/06/04 02:09:56;;;;;;;7.82;5.40;;;;;;;;;;4995378;28;20227;-68
2022/06/04 02:12:21;;;;;;;8.85;5.07;;;;;;;;;;4993860;28;20220;-68
2022/06/04 02:14:46;;;;;;;8.07;5.13;;;;;;;;;;4994468;28;20664;-68
2022/06/04 02:17:14;;;;;;;9.18;5.82;;;;;;;;;;4994766;28;20231;-68
2022/06/04 02:19:40;;;;;;;9.80;5.70;;;;;;;;;;4995078;28;20213;-68
2022/06/04 02:22:05;;;;;;;8.55;5.45;;;;;;;;;;4992358;28;20284;-67
2022/06/04 02:24:31;;;;;;;12.05;6.15;;;;;;;;;;5006921;28;20220;-68
2022/06/04 02:26:56;;;;;;;12.13;6.03;;;;;;;;;;5014654;28;20216;-69
2022/06/04 02:29:22;;;;;;;12.27;5.65;;;;;;;;;;5013590;28;20213;-68
2022/06/04 02:31:49;;;;;;;9.40;5.20;;;;;;;;;;5014635;28;20621;-69
2022/06/04 02:34:21;;;;;;;11.88;5.68;;;;;;;;;;5029153;28;20757;-68
2022/06/04 02:36:47;;;;;;;8.25;5.93;;;;;;;;;;5013415;28;20219;-69
2022/06/04 02:39:15;;;;;;;9.68;5.75;;;;;;;;;;5014072;28;20208;-68
2022/06/04 02:41:43;;;;;;;12.50;6.15;;;;;;;;;;5029304;28;20236;-69
2022/06/04 02:44:15;;;;;;;8.88;5.53;;;;;;;;;;5012122;28;20220;-68
2022/06/04 02:46:44;;;;;;;11.88;6.32;;;;;;;;;;5013017;28;20689;-69
2022/06/04 02:49:12;;;;;;;11.40;6.43;;;;;;;;;;5013416;28;20212;-69
2022/06/04 02:51:41;;;;;;;9.63;5.22;;;;;;;;;;5013035;28;20242;-69
2022/06/04 02:54:14;;;;;;;9.48;5.90;;;;;;;;;;5012460;28;20236;-68
2022/06/04 02:56:39;;;;;;;10.43;6.30;;;;;;;;;;5011925;28;20259;-68
2022/06/04 02:59:05;;;;;;;9.55;5.63;;;;;;;;;;5012108;28;20236;-69
2022/06/04 03:01:31;;;;;;;11.77;5.50;;;;;;;;;;5012655;28;20212;-69
2022/06/04 03:03:56;;;;;;;12.05;6.35;;;;;;;;;;5011931;28;20227;-69
2022/06/04 03:06:24;;;;;;;10.88;5.72;;;;;;;;;;5012224;28;20216;-69
2022/06/04 03:08:49;;;;;;;13.00;6.10;;;;;;;;;;5013898;28;20682;-69
2022/06/04 03:11:14;;;;;;;11.02;6.53;;;;;;;;;;5012643;28;20217;-69
2022/06/04 03:13:40;;;;;;;9.93;5.57;;;;;;;;;;5013674;28;20200;-69
2022/06/04 03:16:05;;;;;;;8.75;6.45;;;;;;;;;;5013200;28;20245;-68
2022/06/04 03:18:31;;;;;;;9.88;5.78;;;;;;;;;;5012814;28;20668;-69
2022/06/04 03:20:56;;;;;;;10.57;6.28;;;;;;;;;;5013705;28;20744;-69
2022/06/04 03:23:21;;;;;;;11.13;5.97;;;;;;;;;;5013082;28;20228;-69
2022/06/04 03:25:46;;;;;;;12.55;6.18;;;;;;;;;;5013198;28;20239;-69
2022/06/04 03:28:12;;;;;;;13.15;6.70;;;;;;;;;;5012802;28;20303;-69
2022/06/04 03:30:38;;;;;;;9.90;6.88;;;;;;;;;;5013328;28;20208;-69
2022/06/04 03:33:04;;;;;;;10.60;6.30;;;;;;;;;;4995752;28;20213;-68
2022/06/04 03:35:29;;;;;;;10.32;6.93;;;;;;;;;;4993942;28;20235;-69
2022/06/04 03:37:55;;;;;;;8.85;5.90;;;;;;;;;;4993722;28;20244;-69
2022/06/04 03:40:20;;;;;;;13.00;6.78;;;;;;;;;;4992797;28;20660;-68
2022/06/04 03:42:45;;;;;;;11.95;7.10;;;;;;;;;;4993317;28;20231;-69
2022/06/04 03:45:11;;;;;;;11.98;6.63;;;;;;;;;;5010512;28;20227;-69
2022/06/04 03:47:36;;;;;;;10.65;6.65;;;;;;;;;;5012573;28;20263;-69
2022/06/04 03:50:05;;;;;;;13.05;7.40;;;;;;;;;;5012686;28;20247;-68
2022/06/04 03:52:30;;;;;;;15.23;7.18;;;;;;;;;;5012552;28;20270;-70
2022/06/04 03:54:57;;;;;;;11.98;7.00;;;;;;;;;;5012779;28;20212;-69
2022/06/04 03:57:41;;;;;;;11.65;6.65;;;;;;;;;;5012347;28;20286;-69
2022/06/04 04:00:08;;;;;;;12.20;7.18;;;;;;;;;;5010625;28;20232;-69
2022/06/04 04:02:34;;;;;;;12.20;6.50;;;;;;;;;;5012725;28;20229;-69
2022/06/04 04:04:59;;;;;;;12.50;6.95;;;;;;;;;;5013075;28;20216;-68
2022/06/04 04:07:25;;;;;;;14.30;6.78;;;;;;;;;;5011772;28;20217;-68
2022/06/04 04:09:50;;;;;;;14.00;7.15;;;;;;;;;;5012635;28;20672;-68
2022/06/04 04:12:15;;;;;;;11.60;7.00;;;;;;;;;;5011930;28;20258;-67
2022/06/04 04:14:41;;;;;;;14.00;7.00;;;;;;;;;;5010417;28;20231;-67
2022/06/04 04:17:07;;;;;;;10.90;7.25;;;;;;;;;;5012108;28;20239;-66
2022/06/04 04:19:32;;;;;;;11.95;6.95;;;;;;;;;;5012706;28;20219;-67
2022/06/04 04:21:57;;;;;;;15.93;7.05;;;;;;;;;;5012024;28;20221;-68
2022/06/04 04:24:23;;;;;;;13.38;7.35;;;;;;;;;;5012315;28;20231;-68
2022/06/04 04:26:48;;;;;;;12.02;6.63;;;;;;;;;;5012166;28;20228;-68
2022/06/04 04:29:13;;;;;;;14.20;7.70;;;;;;;;;;5011220;28;20242;-67
2022/06/04 04:31:39;;;;;;;15.00;7.38;;;;;;;;;;5007145;28;20213;-68
2022/06/04 04:34:04;;;;;;;12.80;7.18;;;;;;;;;;4992173;28;20221;-67
2022/06/04 04:36:30;;;;;;;14.27;7.65;;;;;;;;;;4992425;28;20283;-68
2022/06/04 04:38:57;;;;;;;11.43;7.28;;;;;;;;;;4992807;28;20729;-68
2022/06/04 04:41:23;;;;;;;17.17;7.65;;;;;;;;;;4991719;28;20300;-67
2022/06/04 04:43:48;;;;;;;13.18;8.32;;;;;;;;;;4998243;28;20311;-69
2022/06/04 04:46:13;;;;;;;13.35;7.22;;;;;;;;;;5011694;28;20303;-68
2022/06/04 04:48:39;;;;;;;15.57;7.45;;;;;;;;;;5011962;28;20723;-69
2022/06/04 04:51:04;;;;;;;13.65;7.50;;;;;;;;;;5010167;28;20219;-67
2022/06/04 04:53:30;;;;;;;13.63;8.10;;;;;;;;;;5011018;28;20680;-67
2022/06/04 04:55:55;;;;;;;14.73;7.50;;;;;;;;;;5011013;28;20236;-68
2022/06/04 04:58:21;;;;;;;13.75;8.20;;;;;;;;;;5011402;28;20244;-68
2022/06/04 05:00:46;;;;;;;13.45;8.00;;;;;;;;;;5011709;28;20733;-68
2022/06/04 05:03:11;;;;;;;11.00;7.25;;;;;;;;;;5010683;28;20234;-68
2022/06/04 05:05:37;;;;;;;14.20;7.53;;;;;;;;;;5011830;28;20240;-68
2022/06/04 05:08:02;;;;;;;12.45;7.65;;;;;;;;;;5011375;28;20220;-67
2022/06/04 05:10:28;;;;;;;14.45;7.65;;;;;;;;;;5011030;28;20566;-68
2022/06/04 05:12:53;;;;;;;13.18;7.82;;;;;;;;;;5011579;28;20219;-68
2022/06/04 05:15:19;;;;;;;13.90;7.40;;;;;;;;;;5011139;28;20582;-68
2022/06/04 05:17:44;;;;;;;12.43;7.65;;;;;;;;;;5010954;28;20295;-68
2022/06/04 05:20:10;;;;;;;13.07;7.70;;;;;;;;;;5011409;28;20224;-67
2022/06/04 05:22:35;;;;;;;11.80;7.47;;;;;;;;;;5011899;28;20732;-68
2022/06/04 05:25:01;;;;;;;15.93;7.70;;;;;;;;;;5010637;28;20629;-67
2022/06/04 05:27:27;;;;;;;11.73;7.03;;;;;;;;;;5011252;28;20286;-68
2022/06/04 05:29:52;;;;;;;13.73;7.60;;;;;;;;;;5011260;28;20692;-68
2022/06/04 05:32:17;;;;;;;13.13;7.25;;;;;;;;;;4999694;28;20240;-67
2022/06/04 05:34:42;;;;;;;13.27;7.60;;;;;;;;;;4992191;28;20223;-68
2022/06/04 05:37:08;;;;;;;15.23;8.32;;;;;;;;;;4991662;28;20217;-67
2022/06/04 05:39:34;;;;;;;14.65;8.38;;;;;;;;;;4991586;28;20210;-67
2022/06/04 05:41:59;;;;;;;13.02;7.65;;;;;;;;;;4991624;28;20589;-68
2022/06/04 05:44:25;;;;;;;16.85;8.23;;;;;;;;;;5002390;28;20212;-68
2022/06/04 05:46:50;;;;;;;14.57;7.65;;;;;;;;;;5010774;28;20220;-68
2022/06/04 05:49:15;;;;;;;10.60;7.15;;;;;;;;;;5010984;28;20204;-68
2022/06/04 05:51:42;;;;;;;12.65;7.13;;;;;;;;;;5010019;28;20217;-67
2022/06/04 05:54:07;;;;;;;12.85;7.97;;;;;;;;;;5010489;28;20216;-67
2022/06/04 05:56:33;;;;;;;15.25;7.30;;;;;;;;;;5011014;28;20228;-68
2022/06/04 05:58:59;;;;;;;13.60;7.15;;;;;;;;;;5010884;28;20266;-68
2022/06/04 06:01:26;;;;;;;13.57;7.70;;;;;;;;;;5010088;28;20208;-68
2022/06/04 06:03:52;;;;;;;12.80;7.65;;;;;;;;;;5011264;28;20319;-68
2022/06/04 06:06:18;;;;;;;13.60;7.40;;;;;;;;;;5010344;28;20347;-68
2022/06/04 06:08:43;;;;;;;11.57;7.20;;;;;;;;;;5011652;28;20212;-68
2022/06/04 06:11:09;;;;;;;16.35;7.78;;;;;;;;;;5010612;28;20219;-68
2022/06/04 06:13:35;;;;;;;11.32;7.60;;;;;;;;;;5008556;28;20754;-68
2022/06/04 06:16:07;;;;;;;13.50;6.82;;;;;;;;;;5010831;28;20244;-69
2022/06/04 06:18:32;;;;;;;12.90;6.80;;;;;;;;;;5013086;28;20219;-69
2022/06/04 06:20:58;;;;;;;11.02;7.45;;;;;;;;;;5012999;28;20212;-68
2022/06/04 06:23:24;;;;;;;13.23;6.90;;;;;;;;;;5014459;28;20228;-68
2022/06/04 06:25:49;;;;;;;13.77;7.80;;;;;;;;;;5014678;28;20239;-69
2022/06/04 06:28:15;;;;;;;12.75;7.05;;;;;;;;;;5013272;28;20521;-67
2022/06/04 06:30:40;;;;;;;12.65;6.85;;;;;;;;;;5014073;28;20571;-68
2022/06/04 06:33:05;;;;;;;12.25;7.10;;;;;;;;;;4997018;28;20695;-68
2022/06/04 06:35:31;;;;;;;15.27;6.70;;;;;;;;;;4994779;28;20268;-69
2022/06/04 06:37:56;;;;;;;12.57;6.80;;;;;;;;;;4995215;28;20205;-69
2022/06/04 06:40:21;;;;;;;13.07;6.75;;;;;;;;;;4994180;28;20225;-69
2022/06/04 06:42:47;;;;;;;11.48;6.57;;;;;;;;;;4993713;28;20923;-69
2022/06/04 06:45:12;;;;;;;12.48;6.18;;;;;;;;;;5011971;28;20212;-67
2022/06/04 06:47:37;;;;;;;12.60;7.20;;;;;;;;;;5013653;28;20303;-68
2022/06/04 06:50:03;;;;;;;11.25;6.80;;;;;;;;;;5013369;28;20216;-67
2022/06/04 06:52:28;;;;;;;13.82;7.13;;;;;;;;;;5014448;28;20570;-68
2022/06/04 06:54:54;;;;;;;10.55;6.40;;;;;;;;;;5012614;28;20564;-68
2022/06/04 06:57:19;;;;;;;12.00;6.63;;;;;;;;;;5012919;28;20232;-68
2022/06/04 06:59:47;;;;;;;11.38;6.78;;;;;;;;;;5013695;28;20232;-69
2022/06/04 07:02:12;;;;;;;11.60;6.50;;;;;;;;;;5012983;28;20228;-68
2022/06/04 07:04:37;;;;;;;11.43;6.93;;;;;;;;;;5013641;28;20576;-68
2022/06/04 07:07:03;;;;;;;12.93;6.78;;;;;;;;;;5013652;28;20212;-67
2022/06/04 07:09:31;;;;;;;12.52;6.68;;;;;;;;;;5013051;28;20213;-68
2022/06/04 07:11:56;;;;;;;12.10;6.90;;;;;;;;;;5013730;28;20217;-68
2022/06/04 07:14:23;;;;;;;14.00;6.68;;;;;;;;;;5011648;28;20226;-67
2022/06/04 07:16:48;;;;;;;11.93;6.55;;;;;;;;;;5012776;28;20239;-68
2022/06/04 07:19:14;;;;;;;11.48;6.65;;;;;;;;;;5013662;28;20598;-67
2022/06/04 07:21:39;;;;;;;11.55;6.80;;;;;;;;;;5013955;28;20255;-68
2022/06/04 07:24:04;;;;;;;11.40;6.45;;;;;;;;;;5012546;28;20221;-67
2022/06/04 07:26:30;;;;;;;12.77;7.03;;;;;;;;;;5012404;28;20224;-67
2022/06/04 07:28:55;;;;;;;12.32;7.22;;;;;;;;;;5012486;28;20683;-67
2022/06/04 07:31:20;;;;;;;13.27;7.30;;;;;;;;;;5009255;28;20221;-68
2022/06/04 07:33:46;;;;;;;11.77;6.68;;;;;;;;;;4993998;28;20633;-68
2022/06/04 07:36:18;;;;;;;11.38;6.78;;;;;;;;;;4992478;28;20576;-67
2022/06/04 07:38:44;;;;;;;12.02;6.53;;;;;;;;;;4993466;28;20217;-67
2022/06/04 07:41:17;;;;;;;11.50;6.25;;;;;;;;;;4993058;28;20217;-67
2022/06/04 07:43:42;;;;;;;12.23;6.82;;;;;;;;;;4998774;28;20228;-68
2022/06/04 07:46:07;;;;;;;12.38;6.88;;;;;;;;;;5011877;28;20215;-67
2022/06/04 07:48:33;;;;;;;15.10;7.10;;;;;;;;;;5013009;28;20209;-68
2022/06/04 07:50:58;;;;;;;9.40;6.65;;;;;;;;;;5013001;28;20227;-68
2022/06/04 07:53:23;;;;;;;11.60;7.05;;;;;;;;;;5012086;28;20673;-67
2022/06/04 07:55:49;;;;;;;12.57;7.00;;;;;;;;;;5012659;28;20363;-67
2022/06/04 07:58:14;;;;;;;13.10;6.40;;;;;;;;;;5012088;28;20303;-67
2022/06/04 08:00:39;;;;;;;12.15;6.97;;;;;;;;;;5011958;28;20254;-67
2022/06/04 08:03:05;;;;;;;10.52;6.25;;;;;;;;;;5012474;28;20224;-67
2022/06/04 08:05:31;;;;;;;11.75;6.80;;;;;;;;;;5013083;28;20247;-68
2022/06/04 08:07:56;;;;;;;15.27;6.60;;;;;;;;;;5012387;28;20287;-67
2022/06/04 08:10:21;;;;;;;11.20;6.30;;;;;;;;;;5012122;28;20291;-66
2022/06/04 08:12:48;;;;;;;12.38;6.45;;;;;;;;;;5011811;28;20208;-66
2022/06/04 08:15:14;;;;;;;12.27;6.88;;;;;;;;;;5011870;28;20702;-67
2022/06/04 08:17:39;;;;;;;10.55;6.45;;;;;;;;;;5012796;28;20216;-67
2022/06/04 08:20:05;;;;;;;10.73;6.93;;;;;;;;;;5011649;28;20222;-67
2022/06/04 08:22:31;;;;;;;10.45;6.43;;;;;;;;;;5012862;28;20243;-68
2022/06/04 08:24:56;;;;;;;9.98;6.07;;;;;;;;;;5012497;28;20247;-68
2022/06/04 08:27:23;;;;;;;10.63;7.05;;;;;;;;;;5011043;28;20584;-67
2022/06/04 08:29:48;;;;;;;12.00;5.93;;;;;;;;;;5012303;28;20710;-68
2022/06/04 08:32:13;;;;;;;11.38;6.15;;;;;;;;;;5002029;28;20208;-67
2022/06/04 08:34:39;;;;;;;10.80;6.20;;;;;;;;;;4992170;28;20225;-67
2022/06/04 08:37:06;;;;;;;11.90;6.90;;;;;;;;;;4992579;28;20209;-66
2022/06/04 08:39:32;;;;;;;11.25;5.90;;;;;;;;;;4992383;28;20244;-67
2022/06/04 08:42:00;;;;;;;11.07;6.82;;;;;;;;;;4990564;28;20344;-68
2022/06/04 08:44:28;;;;;;;11.38;5.82;;;;;;;;;;5011810;28;20252;-69
2022/06/04 08:46:53;;;;;;;10.20;6.20;;;;;;;;;;5011896;28;20257;-69
2022/06/04 08:49:24;;;;;;;9.95;6.30;;;;;;;;;;5011152;28;20220;-67
2022/06/04 08:51:50;;;;;;;11.05;6.15;;;;;;;;;;5012221;28;20212;-67
2022/06/04 08:59:49;;;;;;;11.20;6.00;;;;;;;;;;5010723;28;20278;-67
2022/06/04 09:02:18;;;;;;;9.88;5.70;;;;;;;;;;5009471;28;20232;-67
2022/06/04 09:04:47;;;;;;;9.55;5.47;;;;;;;;;;5010253;28;20243;-67
2022/06/04 09:07:21;;;;;;;9.32;5.85;;;;;;;;;;5010093;28;20699;-67
2022/06/04 09:09:59;;;;;;;10.80;6.10;;;;;;;;;;5011223;28;20671;-68
2022/06/04 09:12:24;;;;;;;12.80;6.28;;;;;;;;;;5011664;28;20221;-68
2022/06/04 09:14:51;;;;;;;11.15;6.30;;;;;;;;;;5004978;28;20746;-68
2022/06/04 09:17:18;;;;;;;10.65;5.90;;;;;;;;;;4989665;28;20296;-68
2022/06/04 09:19:47;;;;;;;12.93;5.90;;;;;;;;;;4990482;28;20217;-68
2022/06/04 09:22:19;;;;;;;10.18;6.65;;;;;;;;;;4991445;28;20744;-67
2022/06/04 09:24:45;;;;;;;10.75;6.18;;;;;;;;;;4990521;28;20229;-67
2022/06/04 09:27:17;;;;;;;9.85;5.88;;;;;;;;;;4991895;28;20240;-66
2022/06/04 09:30:01;;;;;;;10.55;6.20;;;;;;;;;;4990173;28;20225;-67
2022/06/04 09:32:44;;;;;;;11.38;5.75;;;;;;;;;;5010399;28;20671;-67
2022/06/04 09:35:09;;;;;;;11.38;5.60;;;;;;;;;;5011313;28;20642;-67
2022/06/04 09:37:40;;;;;;;8.75;5.57;;;;;;;;;;5009811;28;20295;-66
2022/06/04 09:40:06;;;;;;;12.25;6.30;;;;;;;;;;5011038;28;20208;-65
2022/06/04 09:42:32;;;;;;;8.20;5.40;;;;;;;;;;5011333;28;20232;-67
2022/06/04 09:44:58;;;;;;;10.20;6.20;;;;;;;;;;4976594;28;20213;-68
2022/06/04 09:47:33;;;;;;;12.52;5.63;;;;;;;;;;4972031;28;20216;-68
2022/06/04 09:49:59;;;;;;;12.63;6.18;;;;;;;;;;4972123;28;20289;-67
2022/06/04 09:52:33;;;;;;;9.10;5.90;;;;;;;;;;4972265;28;20669;-67
2022/06/04 09:55:03;;;;;;;9.88;6.18;;;;;;;;;;4976013;28;20244;-67
2022/06/04 09:57:31;;;;;;;9.73;5.70;;;;;;;;;;4993759;28;20299;-66
2022/06/04 09:59:57;;;;;;;8.05;5.25;;;;;;;;;;4994956;28;20695;-67
2022/06/04 10:02:22;;;;;;;11.38;5.25;;;;;;;;;;4995166;28;20224;-67
2022/06/04 10:04:48;;;;;;;10.95;5.03;;;;;;;;;;4995660;28;20209;-67
2022/06/04 10:07:27;;;;;;;8.60;5.50;;;;;;;;;;4994213;28;20307;-67
2022/06/04 10:09:58;;;;;;;8.57;5.20;;;;;;;;;;4995386;28;20237;-67
2022/06/04 10:13:42;;;;;;;8.98;5.20;;;;;;;;;;4994198;28;20209;-67
2022/06/04 10:15:14;;;;;;;9.88;5.50;;;;;;;;;;5001704;28;20228;-67
2022/06/04 10:17:39;;;;;;;8.85;5.43;;;;;;;;;;4993691;28;20212;-67
2022/06/04 10:20:17;;;;;;;8.35;5.65;;;;;;;;;;4993422;28;20585;-67
2022/06/04 10:22:49;;;;;;;10.23;5.88;;;;;;;;;;4994357;28;20312;-67
2022/06/04 10:25:21;;;;;;;9.23;6.25;;;;;;;;;;4993998;28;20228;-67
2022/06/04 10:27:48;;;;;;;9.27;5.50;;;;;;;;;;4993027;28;20252;-66
2022/06/04 10:30:13;;;;;;;9.27;5.30;;;;;;;;;;4994115;28;20259;-66
2022/06/04 10:32:45;;;;;;;8.85;5.60;;;;;;;;;;5007809;28;20244;-67
2022/06/04 10:35:24;;;;;;;7.85;5.50;;;;;;;;;;5013493;28;20594;-66
2022/06/04 10:37:53;;;;;;;8.45;5.80;;;;;;;;;;5013412;28;20225;-67
2022/06/04 10:40:20;;;;;;;8.57;5.75;;;;;;;;;;5006174;28;20651;-67
2022/06/04 10:42:52;;;;;;;7.15;4.55;;;;;;;;;;4994044;28;20224;-65
2022/06/04 10:45:25;;;;;;;8.52;5.35;;;;;;;;;;5006028;28;20263;-66
2022/06/04 10:48:05;;;;;;;9.13;5.32;;;;;;;;;;5008721;28;20215;-66
2022/06/04 10:51:25;;;;;;;8.20;5.40;;;;;;;;;;5014680;28;20212;-66
2022/06/04 10:53:23;;;;;;;9.40;5.38;;;;;;;;;;5001811;28;20197;-66
2022/06/04 10:55:51;;;;;;;10.43;4.95;;;;;;;;;;5006689;28;20696;-67
2022/06/04 10:58:22;;;;;;;9.70;5.60;;;;;;;;;;5011086;28;20201;-66
2022/06/04 11:00:51;;;;;;;6.95;5.28;;;;;;;;;;5008628;28;20208;-66
2022/06/04 11:03:18;;;;;;;7.95;4.90;;;;;;;;;;4992861;28;20232;-66
2022/06/04 11:05:47;;;;;;;11.52;4.88;;;;;;;;;;5001611;28;20916;-66
2022/06/04 11:08:20;;;;;;;7.50;4.65;;;;;;;;;;4993029;28;20217;-63
2022/06/04 11:10:47;;;;;;;8.18;5.00;;;;;;;;;;4993639;28;20296;-63
2022/06/04 11:13:15;;;;;;;11.38;6.05;;;;;;;;;;4993830;28;20213;-63
2022/06/04 11:15:43;;;;;;;9.23;4.90;;;;;;;;;;4992636;28;20213;-62
2022/06/04 11:18:12;;;;;;;6.75;4.50;;;;;;;;;;4993708;28;20205;-63
2022/06/04 11:20:39;;;;;;;7.75;4.68;;;;;;;;;;4993790;28;20694;-62
2022/06/04 11:23:14;;;;;;;7.70;4.90;;;;;;;;;;4999849;28;20260;-63
2022/06/04 11:25:41;;;;;;;9.57;4.85;;;;;;;;;;5007294;28;20208;-62
2022/06/04 11:28:07;;;;;;;8.30;4.70;;;;;;;;;;5010848;28;20209;-63
2022/06/04 11:30:43;;;;;;;9.50;5.20;;;;;;;;;;5008618;28;20235;-63
2022/06/04 11:33:15;;;;;;;8.43;4.15;;;;;;;;;;5009786;28;20210;-63
2022/06/04 11:35:43;;;;;;;8.95;4.68;;;;;;;;;;5006017;28;20251;-63
2022/06/04 11:38:14;;;;;;;6.90;4.10;;;;;;;;;;5010663;28;20228;-62
2022/06/04 11:40:41;;;;;;;6.82;4.63;;;;;;;;;;5012126;28;20242;-64
2022/06/04 11:43:11;;;;;;;9.05;5.00;;;;;;;;;;5010350;28;20589;-63
2022/06/04 11:45:38;;;;;;;8.65;4.65;;;;;;;;;;5014973;28;20207;-62
2022/06/04 11:48:07;;;;;;;8.15;4.63;;;;;;;;;;5009950;28;20331;-63
2022/06/04 11:50:37;;;;;;;5.60;4.10;;;;;;;;;;5025982;28;20299;-67
2022/06/04 11:53:10;;;;;;;7.07;4.30;;;;;;;;;;5026628;28;20204;-70
2022/06/04 11:55:51;;;;;;;7.18;4.40;;;;;;;;;;5027782;28;20258;-68
2022/06/04 11:58:27;;;;;;;7.13;4.00;;;;;;;;;;5011406;28;20320;-67
2022/06/04 12:00:52;;;;;;;9.25;5.03;;;;;;;;;;5026300;28;20207;-67
2022/06/04 12:03:26;;;;;;;9.15;4.45;;;;;;;;;;5027536;28;20220;-68
2022/06/04 12:05:51;;;;;;;9.43;4.63;;;;;;;;;;5027587;28;20694;-69
2022/06/04 12:08:20;;;;;;;7.63;4.50;;;;;;;;;;5012214;28;20245;-68
2022/06/04 12:10:55;;;;;;;6.63;3.53;;;;;;;;;;5027674;28;20213;-67
2022/06/04 12:13:23;;;;;;;7.53;4.30;;;;;;;;;;5011643;28;20216;-67
2022/06/04 12:15:50;;;;;;;6.88;3.90;;;;;;;;;;4996740;28;20242;-69
2022/06/04 12:18:26;;;;;;;8.35;4.28;;;;;;;;;;5001293;28;20208;-71
2022/06/04 12:26:30;;;;;;;7.38;4.75;;;;;;;;;;5011986;28;20227;-67
2022/06/04 12:28:55;;;;;;;7.70;4.20;;;;;;;;;;5012431;28;20231;-68
2022/06/04 12:31:35;;;;;;;8.75;5.43;;;;;;;;;;5008471;28;20236;-67
2022/06/04 12:34:01;;;;;;;8.80;4.28;;;;;;;;;;4991675;28;20303;-66
2022/06/04 12:36:28;;;;;;;6.35;4.20;;;;;;;;;;4986742;28;20215;-67
2022/06/04 12:38:57;;;;;;;9.48;4.00;;;;;;;;;;4979260;28;20217;-68
2022/06/04 12:41:22;;;;;;;6.82;4.85;;;;;;;;;;4990766;28;20302;-67
2022/06/04 12:43:55;;;;;;;9.15;4.60;;;;;;;;;;4997416;28;20311;-68
2022/06/04 12:46:21;;;;;;;9.73;4.68;;;;;;;;;;4986559;28;20992;-67
2022/06/04 12:48:55;;;;;;;9.00;4.47;;;;;;;;;;4991012;28;20245;-69
2022/06/04 12:51:26;;;;;;;8.80;5.05;;;;;;;;;;5004187;28;20342;-71
2022/06/04 12:53:54;;;;;;;7.88;4.50;;;;;;;;;;5002126;28;20217;-67
2022/06/04 12:56:21;;;;;;;8.70;4.88;;;;;;;;;;4980884;28;20463;-70
2022/06/04 12:58:48;;;;;;;9.57;5.57;;;;;;;;;;4996573;28;20885;-68
2022/06/04 13:01:21;;;;;;;11.52;4.97;;;;;;;;;;4996875;28;20232;-73
2022/06/04 13:03:48;;;;;;;7.78;4.28;;;;;;;;;;4991449;28;20697;-72
2022/06/04 13:06:14;;;;;;;8.60;4.63;;;;;;;;;;4987509;28;20808;-71
2022/06/04 13:08:46;;;;;;;7.05;4.22;;;;;;;;;;5004448;28;20764;-72
2022/06/04 13:11:20;;;;;;;8.13;4.20;;;;;;;;;;4984872;28;20235;-72
2022/06/04 13:13:47;;;;;;;8.55;4.30;;;;;;;;;;4985462;28;20252;-71
2022/06/04 13:16:15;;;;;;;9.95;4.60;;;;;;;;;;4984223;28;20214;-72
2022/06/04 13:18:40;;;;;;;7.05;4.75;;;;;;;;;;4982806;28;20252;-71
2022/06/04 13:21:09;;;;;;;6.55;3.80;;;;;;;;;;4977037;28;20206;-69
2022/06/04 13:23:36;;;;;;;8.77;3.80;;;;;;;;;;4976617;28;20309;-70
2022/06/04 13:26:17;;;;;;;9.90;4.13;;;;;;;;;;4980820;28;20259;-70
2022/06/04 13:28:43;;;;;;;10.80;5.07;;;;;;;;;;5002853;28;20241;-71
2022/06/04 13:31:17;;;;;;;6.80;4.30;;;;;;;;;;4985631;28;20224;-70
2022/06/04 13:33:42;;;;;;;9.23;4.50;;;;;;;;;;4987097;28;20208;-71
2022/06/04 13:36:08;;;;;;;8.35;4.30;;;;;;;;;;4985913;28;20251;-70
2022/06/04 13:38:38;;;;;;;7.28;3.80;;;;;;;;;;5002944;28;20953;-73
2022/06/04 13:41:05;;;;;;;7.15;3.33;;;;;;;;;;5009584;28;20396;-72
2022/06/04 13:43:31;;;;;;;6.82;4.55;;;;;;;;;;4977351;28;20288;-72
2022/06/04 13:46:06;;;;;;;7.80;3.60;;;;;;;;;;4978951;28;20778;-71
2022/06/04 13:48:31;;;;;;;8.77;3.85;;;;;;;;;;4982704;28;20550;-72
2022/06/04 13:50:56;;;;;;;5.85;4.28;;;;;;;;;;4990112;28;20207;-72
2022/06/04 13:53:24;;;;;;;7.22;3.90;;;;;;;;;;4994874;28;20717;-71
2022/06/04 13:55:50;;;;;;;7.82;3.75;;;;;;;;;;4986121;28;20237;-72
2022/06/04 13:58:18;;;;;;;8.02;4.18;;;;;;;;;;4985405;28;20228;-72
2022/06/04 14:00:46;;;;;;;6.75;3.70;;;;;;;;;;5001059;28;20216;-72
2022/06/04 14:03:14;;;;;;;6.43;4.05;;;;;;;;;;5016537;28;20335;-73
2022/06/04 14:05:47;;;;;;;7.20;3.90;;;;;;;;;;5012742;28;20244;-77
2022/06/04 14:08:13;;;;;;;7.15;4.20;;;;;;;;;;5006371;28;20212;-73
2022/06/04 14:10:39;;;;;;;6.85;3.85;;;;;;;;;;4991608;28;20221;-76
2022/06/04 14:13:04;;;;;;;5.22;3.88;;;;;;;;;;4984533;28;20564;-74
2022/06/04 14:15:41;;;;;;;5.65;3.30;;;;;;;;;;5000973;28;20221;-70
2022/06/04 14:18:11;;;;;;;8.77;4.13;;;;;;;;;;5019473;28;20216;-72
2022/06/04 14:20:52;;;;;;;7.90;4.03;;;;;;;;;;5019184;28;20228;-71
2022/06/04 14:23:18;;;;;;;4.88;3.45;;;;;;;;;;5004019;28;20310;-70
2022/06/04 14:25:43;;;;;;;7.75;3.80;;;;;;;;;;5002409;28;20311;-73
2022/06/04 14:28:22;;;;;;;5.57;3.42;;;;;;;;;;4997219;28;20209;-71
2022/06/04 14:31:01;;;;;;;5.93;3.72;;;;;;;;;;4991246;28;20233;-70
2022/06/04 14:33:26;;;;;;;10.40;4.25;;;;;;;;;;4979554;28;20588;-68
2022/06/04 14:35:56;;;;;;;8.50;4.10;;;;;;;;;;4988682;28;20206;-70
2022/06/04 14:38:21;;;;;;;8.80;3.60;;;;;;;;;;4986336;28;20272;-69
2022/06/04 14:40:50;;;;;;;7.15;3.65;;;;;;;;;;4990508;28;20355;-69
2022/06/04 14:43:27;;;;;;;7.57;3.83;;;;;;;;;;5003161;28;20228;-68
2022/06/04 14:45:53;;;;;;;6.50;3.72;;;;;;;;;;4987672;28;20259;-69
2022/06/04 14:48:24;;;;;;;14.88;4.70;;;;;;;;;;4986329;28;21003;-69
2022/06/04 14:51:00;;;;;;;7.45;4.32;;;;;;;;;;4983763;28;20270;-69
2022/06/04 14:53:26;;;;;;;7.65;3.60;;;;;;;;;;5014980;28;20224;-69
2022/06/04 14:55:55;;;;;;;7.57;3.60;;;;;;;;;;5002216;28;20282;-69
2022/06/04 14:58:26;;;;;;;5.45;3.50;;;;;;;;;;4997843;28;20229;-69